createdAt,value
2022-08-11T00:01:21.228Z,19.20
2022-08-11T00:03:53.082Z,19.20
2022-08-11T00:06:46.620Z,19.20
2022-08-11T00:09:18.201Z,19.10
2022-08-11T00:11:53.374Z,19.10
2022-08-11T00:14:37.314Z,19.00
2022-08-11T00:17:13.396Z,19.00
2022-08-11T00:20:15.413Z,18.90
2022-08-11T00:22:32.331Z,18.80
2022-08-11T00:25:02.715Z,18.80
2022-08-11T00:27:34.588Z,18.70
2022-08-11T00:30:01.651Z,18.60
2022-08-11T00:32:29.790Z,18.60
2022-08-11T00:35:55.873Z,18.60
2022-08-11T00:37:50.328Z,18.60
2022-08-11T00:40:28.172Z,18.60
2022-08-11T00:43:19.325Z,18.60
2022-08-11T00:46:02.516Z,18.60
2022-08-11T00:48:39.762Z,18.60
2022-08-11T00:52:04.386Z,18.60
2022-08-11T00:54:55.980Z,18.50
2022-08-11T00:57:38.554Z,21.40
2022-08-11T01:00:25.110Z,18.40
2022-08-11T01:03:29.988Z,18.30
2022-08-11T01:06:38.060Z,18.30
2022-08-11T01:09:22.116Z,18.10
2022-08-11T01:12:10.438Z,18.00
2022-08-11T01:15:14.624Z,17.90
2022-08-11T01:18:06.164Z,17.80
2022-08-11T01:21:14.076Z,17.70
2022-08-11T01:24:18.261Z,17.60
2022-08-11T01:27:18.930Z,17.50
2022-08-11T01:30:14.323Z,17.40
2022-08-11T01:33:20.016Z,17.40
2022-08-11T01:36:33.748Z,17.30
2022-08-11T01:39:41.608Z,17.30
2022-08-11T01:45:16.776Z,17.20
2022-08-11T01:47:55.504Z,17.20
2022-08-11T01:50:53.181Z,17.10
2022-08-11T01:53:50.364Z,17.10
2022-08-11T01:56:58.714Z,17.00
2022-08-11T01:59:35.941Z,17.00
2022-08-11T02:02:08.317Z,16.90
2022-08-11T02:04:55.387Z,16.80
2022-08-11T02:07:55.593Z,16.70
2022-08-11T02:11:08.334Z,16.70
2022-08-11T02:14:02.729Z,16.60
2022-08-11T02:16:40.634Z,16.50
2022-08-11T02:22:21.391Z,16.40
2022-08-11T02:25:04.224Z,16.40
2022-08-11T02:28:05.894Z,16.30
2022-08-11T02:30:38.503Z,16.30
2022-08-11T02:33:24.758Z,16.30
2022-08-11T02:36:00.780Z,16.30
2022-08-11T02:38:46.148Z,16.30
2022-08-11T02:41:43.428Z,16.30
2022-08-11T02:44:15.715Z,16.20
2022-08-11T02:47:27.574Z,16.20
2022-08-11T02:50:09.381Z,16.10
2022-08-11T02:53:03.434Z,16.00
2022-08-11T02:55:44.568Z,15.90
2022-08-11T02:59:05.849Z,15.90
2022-08-11T03:01:45.571Z,15.80
2022-08-11T03:04:25.174Z,15.70
2022-08-11T03:07:31.207Z,15.70
2022-08-11T03:10:13.116Z,15.60
2022-08-11T03:13:26.494Z,15.60
2022-08-11T03:16:45.648Z,15.50
2022-08-11T03:19:22.997Z,15.50
2022-08-11T03:22:32.846Z,15.50
2022-08-11T03:25:12.905Z,15.50
2022-08-11T03:28:03.398Z,15.50
2022-08-11T03:33:38.003Z,15.40
2022-08-11T03:37:15.530Z,15.40
2022-08-11T03:40:09.212Z,15.30
2022-08-11T03:43:03.552Z,15.30
2022-08-11T03:45:40.927Z,15.30
2022-08-11T03:48:27.933Z,15.30
2022-08-11T03:51:44.985Z,15.30
2022-08-11T03:54:50.539Z,15.30
2022-08-11T03:57:47.121Z,15.20
2022-08-11T04:00:25.620Z,15.20
2022-08-11T04:03:31.071Z,15.10
2022-08-11T04:06:23.405Z,15.00
2022-08-11T04:09:46.322Z,15.00
2022-08-11T04:15:37.999Z,14.90
2022-08-11T04:18:39.172Z,14.90
2022-08-11T04:21:44.814Z,14.90
2022-08-11T04:27:36.821Z,14.90
2022-08-11T04:30:09.207Z,14.90
2022-08-11T04:33:29.776Z,15.00
2022-08-11T04:36:59.563Z,15.00
2022-08-11T04:40:03.912Z,15.00
2022-08-11T04:43:08.150Z,14.90
2022-08-11T04:46:19.001Z,14.90
2022-08-11T04:52:22.058Z,15.00
2022-08-11T04:55:43.347Z,15.10
2022-08-11T04:58:44.494Z,15.30
2022-08-11T05:04:40.065Z,15.60
2022-08-11T05:09:49.924Z,16.00
2022-08-11T05:12:37.714Z,16.10
2022-08-11T05:15:24.688Z,16.20
2022-08-11T05:18:44.178Z,16.30
2022-08-11T05:21:31.049Z,16.50
2022-08-11T05:24:39.245Z,16.60
2022-08-11T05:27:27.760Z,16.70
2022-08-11T05:30:27.077Z,16.90
2022-08-11T05:33:26.231Z,17.10
2022-08-11T05:36:19.153Z,17.30
2022-08-11T05:39:20.282Z,17.40
2022-08-11T05:42:29.819Z,17.60
2022-08-11T05:45:28.402Z,17.80
2022-08-11T05:51:30.025Z,18.10
2022-08-11T05:54:29.122Z,18.20
2022-08-11T05:57:01.233Z,19.60
2022-08-11T05:59:29.494Z,18.40
2022-08-11T06:02:05.806Z,18.50
2022-08-11T06:04:33.330Z,18.60
2022-08-11T06:07:04.043Z,18.80
2022-08-11T06:09:55.493Z,18.90
2022-08-11T06:12:32.126Z,19.10
2022-08-11T06:15:05.752Z,19.20
2022-08-11T06:17:39.162Z,19.30
2022-08-11T06:20:13.347Z,19.50
2022-08-11T06:22:43.647Z,19.60
2022-08-11T06:25:12.272Z,19.70
2022-08-11T06:27:41.520Z,19.90
2022-08-11T06:30:13.492Z,20.00
2022-08-11T06:32:54.379Z,20.20
2022-08-11T06:35:46.746Z,20.40
2022-08-11T06:38:36.638Z,20.50
2022-08-11T06:41:33.530Z,20.70
2022-08-11T06:44:14.830Z,20.80
2022-08-11T06:46:51.214Z,21.00
2022-08-11T06:49:39.729Z,21.10
2022-08-11T06:52:34.596Z,21.30
2022-08-11T06:55:58.096Z,21.40
2022-08-11T06:58:41.297Z,21.60
2022-08-11T07:01:13.188Z,21.70
2022-08-11T07:04:05.745Z,21.90
2022-08-11T07:06:51.074Z,22.10
2022-08-11T07:10:01.148Z,22.20
2022-08-11T07:13:06.472Z,22.30
2022-08-11T07:16:12.464Z,22.50
2022-08-11T07:18:55.229Z,22.60
2022-08-11T07:22:02.631Z,22.80
2022-08-11T07:24:59.359Z,23.00
2022-08-11T07:27:54.746Z,23.30
2022-08-11T07:30:21.575Z,23.30
2022-08-11T07:32:54.891Z,23.70
2022-08-11T07:35:31.219Z,23.80
2022-08-11T07:38:01.634Z,24.00
2022-08-11T07:40:29.901Z,24.10
2022-08-11T07:42:58.793Z,24.30
2022-08-11T07:45:45.524Z,24.50
2022-08-11T07:48:33.651Z,24.60
2022-08-11T07:51:20.002Z,24.80
2022-08-11T07:53:58.474Z,24.90
2022-08-11T07:56:48.754Z,25.00
2022-08-11T08:00:03.893Z,25.10
2022-08-11T08:02:45.418Z,25.20
2022-08-11T08:05:30.940Z,25.40
2022-08-11T08:08:17.344Z,25.50
2022-08-11T08:11:02.915Z,25.60
2022-08-11T08:13:50.862Z,25.70
2022-08-11T08:16:36.405Z,25.80
2022-08-11T08:19:03.171Z,26.00
2022-08-11T08:21:29.827Z,26.10
2022-08-11T08:23:58.614Z,26.10
2022-08-11T08:26:51.574Z,26.20
2022-08-11T08:29:38.631Z,26.20
2022-08-11T08:32:06.872Z,26.30
2022-08-11T08:34:36.832Z,26.40
2022-08-11T08:37:16.123Z,26.50
2022-08-11T08:39:53.228Z,26.60
2022-08-11T08:42:29.833Z,26.70
2022-08-11T08:45:04.922Z,26.70
2022-08-11T08:47:43.041Z,26.80
2022-08-11T08:50:21.409Z,26.90
2022-08-11T08:53:04.984Z,26.90
2022-08-11T08:55:33.607Z,27.00
2022-08-11T08:58:01.984Z,27.00
2022-08-11T09:00:40.709Z,27.10
2022-08-11T09:03:29.569Z,27.10
2022-08-11T09:05:56.190Z,27.20
2022-08-11T09:08:24.130Z,27.30
2022-08-11T09:11:13.764Z,27.30
2022-08-11T09:13:44.268Z,27.30
2022-08-11T09:16:12.308Z,27.30
2022-08-11T09:18:41.512Z,27.40
2022-08-11T09:21:08.658Z,27.50
2022-08-11T09:24:14.970Z,27.50
2022-08-11T09:27:01.018Z,27.60
2022-08-11T09:29:29.279Z,27.60
2022-08-11T09:31:56.809Z,27.60
2022-08-11T09:34:25.042Z,27.60
2022-08-11T09:37:11.331Z,27.80
2022-08-11T09:39:59.433Z,27.90
2022-08-11T09:42:47.038Z,27.90
2022-08-11T09:45:14.504Z,27.90
2022-08-11T09:47:43.562Z,28.00
2022-08-11T09:50:10.945Z,28.00
2022-08-11T09:52:52.364Z,28.10
2022-08-11T09:55:25.074Z,28.10
2022-08-11T09:58:10.601Z,28.10
2022-08-11T10:00:40.127Z,28.00
2022-08-11T10:03:27.111Z,28.10
2022-08-11T10:06:16.839Z,28.00
2022-08-11T10:08:44.237Z,28.00
2022-08-11T10:11:17.320Z,28.00
2022-08-11T10:14:33.248Z,28.00
2022-08-11T10:16:52.174Z,28.10
2022-08-11T10:19:22.026Z,28.20
2022-08-11T10:22:12.401Z,28.20
2022-08-11T10:25:00.462Z,28.20
2022-08-11T10:28:30.799Z,28.20
2022-08-11T10:30:33.129Z,28.20
2022-08-11T10:33:20.017Z,28.20
2022-08-11T10:36:06.151Z,28.20
2022-08-11T10:38:45.714Z,28.30
2022-08-11T10:41:32.262Z,28.20
2022-08-11T10:44:02.483Z,28.30
2022-08-11T10:46:49.683Z,28.40
2022-08-11T10:49:17.242Z,28.40
2022-08-11T10:52:03.940Z,28.40
2022-08-11T10:54:51.991Z,28.50
2022-08-11T10:57:38.200Z,28.50
2022-08-11T11:00:06.966Z,28.50
2022-08-11T11:02:34.452Z,28.60
2022-08-11T11:05:12.441Z,28.50
2022-08-11T11:07:50.077Z,28.60
2022-08-11T11:10:16.921Z,28.60
2022-08-11T11:13:10.055Z,28.60
2022-08-11T11:15:58.580Z,28.60
2022-08-11T11:18:37.561Z,28.60
2022-08-11T11:21:08.205Z,28.60
2022-08-11T11:23:47.240Z,28.60
2022-08-11T11:26:41.232Z,28.60
2022-08-11T11:29:35.877Z,28.70
2022-08-11T11:32:30.284Z,28.70
2022-08-11T11:35:15.352Z,28.70
2022-08-11T11:38:03.415Z,28.70
2022-08-11T11:40:32.887Z,28.80
2022-08-11T11:43:00.301Z,28.90
2022-08-11T11:45:27.263Z,28.90
2022-08-11T11:47:56.379Z,28.90
2022-08-11T11:50:35.748Z,28.90
2022-08-11T11:53:06.953Z,28.90
2022-08-11T11:55:34.987Z,29.00
2022-08-11T11:58:22.124Z,29.00
2022-08-11T12:01:09.739Z,28.90
2022-08-11T12:03:37.976Z,28.90
2022-08-11T12:06:06.824Z,28.90
2022-08-11T12:08:33.864Z,28.90
2022-08-11T12:11:25.223Z,28.80
2022-08-11T12:13:57.214Z,28.80
2022-08-11T12:16:33.425Z,28.80
2022-08-11T12:19:13.542Z,28.80
2022-08-11T12:22:00.700Z,28.90
2022-08-11T12:24:48.703Z,28.90
2022-08-11T12:27:24.966Z,28.90
2022-08-11T12:30:01.001Z,29.00
2022-08-11T12:32:30.690Z,28.90
2022-08-11T12:34:57.801Z,28.90
2022-08-11T12:37:43.543Z,28.90
2022-08-11T12:40:42.802Z,29.00
2022-08-11T12:43:40.706Z,29.00
2022-08-11T12:46:21.549Z,28.90
2022-08-11T12:49:10.892Z,29.00
2022-08-11T12:52:11.126Z,29.10
2022-08-11T12:54:54.252Z,29.10
2022-08-11T12:57:50.515Z,29.10
2022-08-11T13:00:36.973Z,29.10
2022-08-11T13:03:25.362Z,29.10
2022-08-11T13:05:54.876Z,29.20
2022-08-11T13:08:24.959Z,29.20
2022-08-11T13:11:15.747Z,29.20
2022-08-11T13:13:53.810Z,29.30
2022-08-11T13:16:28.968Z,29.30
2022-08-11T13:19:00.869Z,29.40
2022-08-11T13:21:28.542Z,29.40
2022-08-11T13:24:01.507Z,29.40
2022-08-11T13:26:43.319Z,29.30
2022-08-11T13:29:20.061Z,29.40
2022-08-11T13:31:47.607Z,29.30
2022-08-11T13:34:16.900Z,29.50
2022-08-11T13:36:44.660Z,29.40
2022-08-11T13:39:12.848Z,29.40
2022-08-11T13:41:45.022Z,29.40
2022-08-11T13:44:21.625Z,29.60
2022-08-11T13:46:52.936Z,29.50
2022-08-11T13:49:21.887Z,29.50
2022-08-11T13:51:49.467Z,29.50
2022-08-11T13:54:19.292Z,29.40
2022-08-11T13:56:48.030Z,29.50
2022-08-11T13:59:20.221Z,29.50
2022-08-11T14:02:19.596Z,29.50
2022-08-11T14:04:52.717Z,29.50
2022-08-11T14:07:22.786Z,29.50
2022-08-11T14:09:56.651Z,29.50
2022-08-11T14:12:44.648Z,29.50
2022-08-11T14:15:35.420Z,29.50
2022-08-11T14:18:13.551Z,29.60
2022-08-11T14:21:01.348Z,29.60
2022-08-11T14:23:35.435Z,29.70
2022-08-11T14:26:22.575Z,29.70
2022-08-11T14:28:53.118Z,29.70
2022-08-11T14:31:19.959Z,29.70
2022-08-11T14:34:00.139Z,29.70
2022-08-11T14:36:39.816Z,29.70
2022-08-11T14:39:12.548Z,29.70
2022-08-11T14:42:11.437Z,29.70
2022-08-11T14:45:01.218Z,29.70
2022-08-11T14:47:29.792Z,29.80
2022-08-11T14:50:09.257Z,29.90
2022-08-11T14:52:38.962Z,29.80
2022-08-11T14:55:26.233Z,29.90
2022-08-11T14:58:04.699Z,29.80
2022-08-11T15:00:34.125Z,29.80
2022-08-11T15:03:12.731Z,29.80
2022-08-11T15:05:55.910Z,29.80
2022-08-11T15:08:47.223Z,29.80
2022-08-11T15:11:35.318Z,29.90
2022-08-11T15:14:04.672Z,29.90
2022-08-11T15:16:50.778Z,29.90
2022-08-11T15:19:20.937Z,29.90
2022-08-11T15:22:07.710Z,31.50
2022-08-11T15:24:36.283Z,29.90
2022-08-11T15:27:27.590Z,29.90
2022-08-11T15:30:21.018Z,30.00
2022-08-11T15:33:25.531Z,29.90
2022-08-11T15:36:12.712Z,29.90
2022-08-11T15:38:43.898Z,29.80
2022-08-11T15:41:34.035Z,29.80
2022-08-11T15:44:44.697Z,29.80
2022-08-11T15:47:14.259Z,29.80
2022-08-11T15:50:12.546Z,29.80
2022-08-11T15:52:34.386Z,29.80
2022-08-11T15:55:08.527Z,29.80
2022-08-11T15:57:55.498Z,29.90
2022-08-11T16:00:41.465Z,29.90
2022-08-11T16:04:07.435Z,29.90
2022-08-11T16:06:14.644Z,29.90
2022-08-11T16:08:44.794Z,29.90
2022-08-11T16:11:13.223Z,29.80
2022-08-11T16:13:40.862Z,29.80
2022-08-11T16:16:15.314Z,29.80
2022-08-11T16:18:52.114Z,29.80
2022-08-11T16:21:34.322Z,29.80
2022-08-11T16:24:06.308Z,29.80
2022-08-11T16:27:08.419Z,29.80
2022-08-11T16:29:25.233Z,29.80
2022-08-11T16:32:13.533Z,29.70
2022-08-11T16:35:00.464Z,29.70
2022-08-11T16:37:46.786Z,29.60
2022-08-11T16:40:15.066Z,29.60
2022-08-11T16:43:10.048Z,29.60
2022-08-11T16:45:58.559Z,29.60
2022-08-11T16:48:36.521Z,29.60
2022-08-11T16:51:10.492Z,29.50
2022-08-11T16:53:54.594Z,29.50
2022-08-11T16:56:34.053Z,29.50
2022-08-11T16:59:16.355Z,29.40
2022-08-11T17:01:58.070Z,29.40
2022-08-11T17:04:54.951Z,29.30
2022-08-11T17:07:43.200Z,29.30
2022-08-11T17:11:01.699Z,29.30
2022-08-11T17:13:58.802Z,29.20
2022-08-11T17:16:32.017Z,29.20
2022-08-11T17:19:02.836Z,29.10
2022-08-11T17:21:33.800Z,29.10
2022-08-11T17:24:08.756Z,29.10
2022-08-11T17:26:55.622Z,29.00
2022-08-11T17:29:54.764Z,29.00
2022-08-11T17:32:57.072Z,29.00
2022-08-11T17:35:32.810Z,29.00
2022-08-11T17:38:23.900Z,28.90
2022-08-11T17:41:22.788Z,28.90
2022-08-11T17:44:10.372Z,28.90
2022-08-11T17:46:56.920Z,28.90
2022-08-11T17:49:24.903Z,28.80
2022-08-11T17:52:10.549Z,28.70
2022-08-11T17:54:57.927Z,28.60
2022-08-11T17:57:47.676Z,28.60
2022-08-11T18:00:15.362Z,28.50
2022-08-11T18:03:03.558Z,28.50
2022-08-11T18:05:33.542Z,28.40
2022-08-11T18:08:23.862Z,28.30
2022-08-11T18:11:10.422Z,28.20
2022-08-11T18:13:59.009Z,28.20
2022-08-11T18:16:44.342Z,28.00
2022-08-11T18:19:30.695Z,28.00
2022-08-11T18:22:32.865Z,27.90
2022-08-11T18:25:24.898Z,27.80
2022-08-11T18:28:12.883Z,27.70
2022-08-11T18:31:03.816Z,27.60
2022-08-11T18:34:07.157Z,27.50
2022-08-11T18:37:00.240Z,27.50
2022-08-11T18:39:56.256Z,27.40
2022-08-11T18:42:43.442Z,27.30
2022-08-11T18:45:35.174Z,27.20
2022-08-11T18:48:34.043Z,27.10
2022-08-11T18:51:31.287Z,27.00
2022-08-11T18:54:26.390Z,26.90
2022-08-11T18:57:12.841Z,26.80
2022-08-11T19:00:00.562Z,26.70
2022-08-11T19:02:49.112Z,26.60
2022-08-11T19:06:05.946Z,26.60
2022-08-11T19:08:47.622Z,26.40
2022-08-11T19:11:33.700Z,26.40
2022-08-11T19:14:23.121Z,26.30
2022-08-11T19:17:10.647Z,26.20
2022-08-11T19:19:58.748Z,26.10
2022-08-11T19:22:46.145Z,26.10
2022-08-11T19:25:33.420Z,26.00
2022-08-11T19:28:22.958Z,25.90
2022-08-11T19:31:09.604Z,25.80
2022-08-11T19:34:02.627Z,25.80
2022-08-11T19:36:56.616Z,25.70
2022-08-11T19:42:28.758Z,25.50
2022-08-11T19:45:15.367Z,25.40
2022-08-11T19:48:28.509Z,25.30
2022-08-11T19:51:09.629Z,25.20
2022-08-11T19:53:56.478Z,25.10
2022-08-11T19:56:42.069Z,25.00
2022-08-11T20:02:14.811Z,24.90
2022-08-11T20:05:01.064Z,24.80
2022-08-11T20:07:48.708Z,24.70
2022-08-11T20:10:38.275Z,24.60
2022-08-11T20:13:26.740Z,24.50
2022-08-11T20:16:14.138Z,24.50
2022-08-11T20:19:00.821Z,24.40
2022-08-11T20:21:46.900Z,24.40
2022-08-11T20:24:33.851Z,24.30
2022-08-11T20:27:24.713Z,24.20
2022-08-11T20:30:12.185Z,24.20
2022-08-11T20:32:59.227Z,24.10
2022-08-11T20:35:45.728Z,24.10
2022-08-11T20:38:32.958Z,23.80
2022-08-11T20:41:20.203Z,23.90
2022-08-11T20:44:09.330Z,23.90
2022-08-11T20:46:57.591Z,23.70
2022-08-11T20:49:50.601Z,23.70
2022-08-11T20:52:44.004Z,23.60
2022-08-11T20:55:46.252Z,23.50
2022-08-11T21:01:46.386Z,23.30
2022-08-11T21:04:33.317Z,23.20
2022-08-11T21:10:30.523Z,23.00
2022-08-11T21:13:26.384Z,23.00
2022-08-11T21:16:25.556Z,22.80
2022-08-11T21:19:59.569Z,22.70
2022-08-11T21:22:35.786Z,22.60
2022-08-11T21:25:25.794Z,22.50
2022-08-11T21:28:13.689Z,22.40
2022-08-11T21:30:59.557Z,22.30
2022-08-11T21:33:48.298Z,22.30
2022-08-11T21:39:24.924Z,22.10
2022-08-11T21:42:12.568Z,22.00
2022-08-11T21:45:00.194Z,21.80
2022-08-11T21:47:47.150Z,21.90
2022-08-11T21:53:18.993Z,21.80
2022-08-11T21:56:05.385Z,21.80
2022-08-11T21:58:52.278Z,21.70
2022-08-11T22:04:25.121Z,21.60
2022-08-11T22:07:11.035Z,21.60
2022-08-11T22:09:56.644Z,21.40
2022-08-11T22:12:44.968Z,21.30
2022-08-11T22:15:31.193Z,21.30
2022-08-11T22:18:16.586Z,21.20
2022-08-11T22:21:02.955Z,21.10
2022-08-11T22:23:51.653Z,21.10
2022-08-11T22:26:39.621Z,21.10
2022-08-11T22:32:33.765Z,20.90
2022-08-11T22:35:20.916Z,20.90
2022-08-11T22:38:07.567Z,20.80
2022-08-11T22:40:53.077Z,20.70
2022-08-11T22:43:38.443Z,20.70
2022-08-11T22:46:23.836Z,20.60
2022-08-11T22:49:11.217Z,20.50
2022-08-11T22:51:58.302Z,20.40
2022-08-11T22:54:44.973Z,20.40
2022-08-11T23:00:16.790Z,20.30
2022-08-11T23:08:34.854Z,20.10
2022-08-11T23:11:21.419Z,20.00
2022-08-11T23:14:07.041Z,20.00
2022-08-11T23:16:52.489Z,19.80
2022-08-11T23:20:07.034Z,19.70
2022-08-11T23:22:50.052Z,19.60
2022-08-11T23:28:21.514Z,19.50
2022-08-11T23:31:09.566Z,19.50
2022-08-11T23:33:58.617Z,19.40
2022-08-11T23:36:47.047Z,19.40
2022-08-11T23:39:33.140Z,19.40
2022-08-11T23:47:57.007Z,19.20
2022-08-11T23:50:43.132Z,19.20
2022-08-11T23:53:29.102Z,19.20
2022-08-11T23:59:00.663Z,19.10
